Riviere-Saint-Jean, Canada
Current Conditions -  °F | °C
As of 9:00 PM on Wednesday 26 Nov 2014 (Local Time) from CYGV Reporting Station
Overcast Overcast  
Wind Chill: 19°   Ceiling: 16000
Heat Index: 25°   Visibility: 9mi
Dew Point: 18°   Wind: 5mph
Humidity: 74%   Direction: 10°N
Pressure: 30.16"   Gusts: NA
Location:  50.28°N, 64.33°W
Report Text: CYGV 270200Z AUTO 01004KT 9SM OVC160 M04/M08 A3016 RMK SLP216
Loading
Personal Weather Stations






























Interactive Weather Map New forecast layout! Learn more

10-Day Weather Forecast

Advertisements
Track Severe Weather on mobile